Ryan Point — WDI6485 — position and weather

sailwx.info

Track history (hours):
 
Tides and Currents Weather Stations Pressure Air Temp Water Temp Dewpoint Dewpoint Depression Visibility Wind Speed Wind Dir Waves Ship Positions

Ryan Point

Owner: Tidewater Barge Lines, Inc., Vancouver, WA. More information available from US FCC via Universal Licensing System and Coast Guard Vessel Documentation Center.

Last reported at 2018-Feb-18 04:20 UTC. Time now 2018-Feb-21 21:38 UTC.
Position N 45°37' W 122°01'.

Length 30 m; draft 4.5 m.

Type: Towing. MMSI: 367719170.

Date/timePositionNaut miles runAvg speedWind from/ knotsBaromVisibWave heightAir tempDewpointWater temp
2018-Feb-18 04:20N 45°37' W 122°01'2 4.6
2018-Feb-18 03:58N 45°36' W 122°03'4 6.3
2018-Feb-18 03:24N 45°35' W 122°08'3 6.7
2018-Feb-18 03:00N 45°34' W 122°12'3 6.4
2018-Feb-18 02:30N 45°33' W 122°16'3 6.3
2018-Feb-18 02:00N 45°33' W 122°20'3 5.2
2018-Feb-18 01:30N 45°35' W 122°23'3 5.4
2018-Feb-18 01:00N 45°34' W 122°27'5 5.9
2018-Feb-18 00:11N 45°36' W 122°33'2 5.8
2018-Feb-17 23:48N 45°36' W 122°37'2 5.9
2018-Feb-17 23:30N 45°37' W 122°39'3 6.0
2018-Feb-17 23:01N 45°38' W 122°43'2 3.4
2018-Feb-17 22:31N 45°39' W 122°45'0 0.5
2018-Feb-17 22:01N 45°39' W 122°45'0 0.2
2018-Feb-17 21:30N 45°39' W 122°44'0 0.0
2018-Feb-17 21:00N 45°39' W 122°44'0 0.0
2018-Feb-17 20:31N 45°39' W 122°44'0 0.0
2018-Feb-17 20:00N 45°39' W 122°44'1 1.3
2018-Feb-17 19:30N 45°39' W 122°45'3 5.0
2018-Feb-17 18:51N 45°36' W 122°47'2 6.5
2018-Feb-17 18:31N 45°34' W 122°45'0 0.1
2018-Feb-17 18:00N 45°34' W 122°45'3 6.6
2018-Feb-17 17:30N 45°37' W 122°47'3 5.4
2018-Feb-17 17:01N 45°39' W 122°45'1 2.2
2018-Feb-17 16:31N 45°39' W 122°46'2 3.0
2018-Feb-17 16:00N 45°39' W 122°44'1 2.3
2018-Feb-17 15:30N 45°38' W 122°43'1 1.1
2018-Feb-17 15:00N 45°38' W 122°42'4 7.2
2018-Feb-17 14:30N 45°36' W 122°37'4 7.6
2018-Feb-17 14:00N 45°35' W 122°32'4 7.8
2018-Feb-17 13:30N 45°34' W 122°27'4 8.0
2018-Feb-17 13:00N 45°34' W 122°21'4 7.0
2018-Feb-17 12:23N 45°33' W 122°15'  
2018-Feb-12 09:40N 45°37' W 122°00'0 1.6
2018-Feb-12 09:25N 45°37' W 122°01'2 3.3
2018-Feb-12 08:55N 45°36' W 122°03'3 6.0
2018-Feb-12 08:26N 45°35' W 122°07'3 6.2
2018-Feb-12 08:00N 45°35' W 122°10'3 6.1
2018-Feb-12 07:30N 45°33' W 122°14'3 5.8
2018-Feb-12 07:00N 45°33' W 122°18'3 5.5
2018-Feb-12 06:30N 45°34' W 122°22'2 4.4
2018-Feb-12 06:00N 45°34' W 122°25'3 5.1
2018-Feb-12 05:31N 45°35' W 122°28'3 5.7
2018-Feb-12 05:00N 45°36' W 122°32'3 5.6
2018-Feb-12 04:30N 45°36' W 122°36'3 5.5
2018-Feb-12 04:01N 45°37' W 122°40'2 4.6
2018-Feb-12 03:31N 45°38' W 122°43'2 3.5
2018-Feb-12 03:00N 45°39' W 122°45'0 0.3
2018-Feb-12 02:31N 45°39' W 122°45'0 0.4
2018-Feb-12 02:01N 45°39' W 122°44'1 1.8
2018-Feb-12 01:30N 45°38' W 122°43'0 0.8
2018-Feb-12 01:00N 45°38' W 122°43'2 4.1
2018-Feb-12 00:30N 45°37' W 122°40'3 6.4
2018-Feb-12 00:00N 45°36' W 122°36'4 7.9
2018-Feb-11 23:30N 45°35' W 122°30'4 8.2
2018-Feb-11 22:59N 45°34' W 122°24'4 8.1
2018-Feb-11 22:30N 45°33' W 122°19'4 8.1
2018-Feb-11 22:00N 45°33' W 122°13'4 8.0
2018-Feb-11 21:30N 45°35' W 122°08'  
2018-Feb-09 06:30N 45°33' W 122°19'5 4.9
2018-Feb-09 05:30N 45°34' W 122°26'14 2.6
2018-Feb-09 00:00N 45°39' W 122°45'5 2.5
2018-Feb-08 22:00N 45°34' W 122°44'5 0.8
2018-Feb-08 16:00N 45°39' W 122°44'1 0.2
2018-Feb-08 07:00N 45°38' W 122°43'10 6.7
2018-Feb-08 05:30N 45°35' W 122°29'  
Track history (hours):
 
Tides and Currents Weather Stations Pressure Air Temp Water Temp Dewpoint Dewpoint Depression Visibility Wind Speed Wind Dir Waves Ship Positions

Ryan Point

Owner: Tidewater Barge Lines, Inc., Vancouver, WA. More information available from US FCC via Universal Licensing System and Coast Guard Vessel Documentation Center.

Last reported at 2018-Feb-18 04:20 UTC. Time now 2018-Feb-21 21:38 UTC.
Position N 45°37' W 122°01'.

Length 30 m; draft 4.5 m.

Type: Towing. MMSI: 367719170.

Date/timePositionNaut miles runAvg speedWind from/ knotsBaromVisibWave heightAir tempDewpointWater temp
2018-Feb-18 04:20N 45°37' W 122°01'2 4.6
2018-Feb-18 03:58N 45°36' W 122°03'4 6.3
2018-Feb-18 03:24N 45°35' W 122°08'3 6.7
2018-Feb-18 03:00N 45°34' W 122°12'3 6.4
2018-Feb-18 02:30N 45°33' W 122°16'3 6.3
2018-Feb-18 02:00N 45°33' W 122°20'3 5.2
2018-Feb-18 01:30N 45°35' W 122°23'3 5.4
2018-Feb-18 01:00N 45°34' W 122°27'5 5.9
2018-Feb-18 00:11N 45°36' W 122°33'2 5.8
2018-Feb-17 23:48N 45°36' W 122°37'2 5.9
2018-Feb-17 23:30N 45°37' W 122°39'3 6.0
2018-Feb-17 23:01N 45°38' W 122°43'2 3.4
2018-Feb-17 22:31N 45°39' W 122°45'0 0.5
2018-Feb-17 22:01N 45°39' W 122°45'0 0.2
2018-Feb-17 21:30N 45°39' W 122°44'0 0.0
2018-Feb-17 21:00N 45°39' W 122°44'0 0.0
2018-Feb-17 20:31N 45°39' W 122°44'0 0.0
2018-Feb-17 20:00N 45°39' W 122°44'1 1.3
2018-Feb-17 19:30N 45°39' W 122°45'3 5.0
2018-Feb-17 18:51N 45°36' W 122°47'2 6.5
2018-Feb-17 18:31N 45°34' W 122°45'0 0.1
2018-Feb-17 18:00N 45°34' W 122°45'3 6.6
2018-Feb-17 17:30N 45°37' W 122°47'3 5.4
2018-Feb-17 17:01N 45°39' W 122°45'1 2.2
2018-Feb-17 16:31N 45°39' W 122°46'2 3.0
2018-Feb-17 16:00N 45°39' W 122°44'1 2.3
2018-Feb-17 15:30N 45°38' W 122°43'1 1.1
2018-Feb-17 15:00N 45°38' W 122°42'4 7.2
2018-Feb-17 14:30N 45°36' W 122°37'4 7.6
2018-Feb-17 14:00N 45°35' W 122°32'4 7.8
2018-Feb-17 13:30N 45°34' W 122°27'4 8.0
2018-Feb-17 13:00N 45°34' W 122°21'4 7.0
2018-Feb-17 12:23N 45°33' W 122°15'  
2018-Feb-12 09:40N 45°37' W 122°00'0 1.6
2018-Feb-12 09:25N 45°37' W 122°01'2 3.3
2018-Feb-12 08:55N 45°36' W 122°03'3 6.0
2018-Feb-12 08:26N 45°35' W 122°07'3 6.2
2018-Feb-12 08:00N 45°35' W 122°10'3 6.1
2018-Feb-12 07:30N 45°33' W 122°14'3 5.8
2018-Feb-12 07:00N 45°33' W 122°18'3 5.5
2018-Feb-12 06:30N 45°34' W 122°22'2 4.4
2018-Feb-12 06:00N 45°34' W 122°25'3 5.1
2018-Feb-12 05:31N 45°35' W 122°28'3 5.7
2018-Feb-12 05:00N 45°36' W 122°32'3 5.6
2018-Feb-12 04:30N 45°36' W 122°36'3 5.5
2018-Feb-12 04:01N 45°37' W 122°40'2 4.6
2018-Feb-12 03:31N 45°38' W 122°43'2 3.5
2018-Feb-12 03:00N 45°39' W 122°45'0 0.3
2018-Feb-12 02:31N 45°39' W 122°45'0 0.4
2018-Feb-12 02:01N 45°39' W 122°44'1 1.8
2018-Feb-12 01:30N 45°38' W 122°43'0 0.8
2018-Feb-12 01:00N 45°38' W 122°43'2 4.1
2018-Feb-12 00:30N 45°37' W 122°40'3 6.4
2018-Feb-12 00:00N 45°36' W 122°36'4 7.9
2018-Feb-11 23:30N 45°35' W 122°30'4 8.2
2018-Feb-11 22:59N 45°34' W 122°24'4 8.1
2018-Feb-11 22:30N 45°33' W 122°19'4 8.1
2018-Feb-11 22:00N 45°33' W 122°13'4 8.0
2018-Feb-11 21:30N 45°35' W 122°08'  
2018-Feb-09 06:30N 45°33' W 122°19'5 4.9
2018-Feb-09 05:30N 45°34' W 122°26'14 2.6
2018-Feb-09 00:00N 45°39' W 122°45'5 2.5
2018-Feb-08 22:00N 45°34' W 122°44'5 0.8
2018-Feb-08 16:00N 45°39' W 122°44'1 0.2
2018-Feb-08 07:00N 45°38' W 122°43'10 6.7
2018-Feb-08 05:30N 45°35' W 122°29'  

Dump ship's entire track history